createdAt,value
2018-09-27T00:00:05.680Z,951.1
2018-09-27T00:01:05.583Z,951
2018-09-27T00:02:05.775Z,950.9
2018-09-27T00:03:05.512Z,951
2018-09-27T00:04:05.237Z,951
2018-09-27T00:05:04.968Z,951
2018-09-27T00:06:04.704Z,951
2018-09-27T00:07:04.494Z,951
2018-09-27T00:08:04.235Z,950.9
2018-09-27T00:09:03.969Z,950.9
2018-09-27T00:10:03.693Z,950.9
2018-09-27T00:11:03.428Z,951
2018-09-27T00:12:03.778Z,950.9
2018-09-27T00:13:03.713Z,951
2018-09-27T00:14:06.801Z,950.9
2018-09-27T00:15:06.705Z,950.9
2018-09-27T00:16:06.607Z,950.9
2018-09-27T00:17:06.507Z,950.9
2018-09-27T00:18:06.439Z,950.9
2018-09-27T00:19:06.402Z,950.8
2018-09-27T00:20:06.310Z,950.8
2018-09-27T00:21:06.223Z,950.8
2018-09-27T00:22:06.554Z,950.8
2018-09-27T00:23:06.455Z,950.8
2018-09-27T00:24:06.372Z,950.8
2018-09-27T00:25:06.284Z,950.8
2018-09-27T00:26:06.188Z,950.8
2018-09-27T00:27:06.104Z,950.8
2018-09-27T00:28:06.016Z,950.8
2018-09-27T00:29:05.953Z,950.7
2018-09-27T00:30:05.865Z,950.8
2018-09-27T00:31:05.764Z,950.8
2018-09-27T00:32:06.106Z,950.8
2018-09-27T00:33:06.009Z,950.8
2018-09-27T00:34:05.928Z,950.7
2018-09-27T00:35:05.875Z,950.7
2018-09-27T00:36:05.773Z,950.8
2018-09-27T00:37:05.675Z,950.7
2018-09-27T00:38:05.582Z,950.7
2018-09-27T00:39:05.495Z,950.6
2018-09-27T00:40:05.399Z,950.6
2018-09-27T00:41:05.316Z,950.7
2018-09-27T00:42:05.474Z,950.7
2018-09-27T00:43:05.245Z,950.7
2018-09-27T00:44:04.972Z,950.8
2018-09-27T00:45:04.702Z,950.7
2018-09-27T00:46:04.468Z,950.7
2018-09-27T00:47:04.199Z,950.8
2018-09-27T00:48:03.935Z,950.7
2018-09-27T00:49:03.665Z,950.8
2018-09-27T00:50:03.419Z,950.7
2018-09-27T00:51:03.163Z,950.7
2018-09-27T00:52:03.510Z,950.7
2018-09-27T00:53:03.412Z,950.7
2018-09-27T00:54:03.319Z,950.7
2018-09-27T00:55:03.242Z,950.7
2018-09-27T00:56:03.139Z,950.6
2018-09-27T00:57:03.079Z,950.7
2018-09-27T00:58:02.975Z,950.7
2018-09-27T00:59:02.877Z,950.7
2018-09-27T01:00:02.798Z,950.5
2018-09-27T01:01:02.698Z,950.3
2018-09-27T01:02:03.048Z,950.6
2018-09-27T01:03:03.013Z,950.6
2018-09-27T01:04:02.936Z,950.7
2018-09-27T01:05:02.852Z,950.6
2018-09-27T01:06:02.808Z,950.5
2018-09-27T01:07:02.720Z,950.5
2018-09-27T01:08:02.635Z,950.1
2018-09-27T01:09:02.544Z,950.5
2018-09-27T01:10:02.557Z,950.5
2018-09-27T01:11:02.471Z,950.5
2018-09-27T01:12:02.814Z,950.6
2018-09-27T01:13:02.753Z,950.5
2018-09-27T01:14:02.701Z,950.5
2018-09-27T01:15:02.620Z,950.5
2018-09-27T01:16:02.538Z,950.6
2018-09-27T01:17:02.452Z,950.5
2018-09-27T01:18:02.360Z,950.6
2018-09-27T01:19:02.313Z,950.5
2018-09-27T01:20:02.231Z,950.5
2018-09-27T01:21:02.143Z,950.5
2018-09-27T01:22:02.508Z,950.4
2018-09-27T01:23:02.401Z,950.5
2018-09-27T01:24:02.328Z,950.4
2018-09-27T01:25:02.242Z,950.4
2018-09-27T01:26:02.225Z,950.4
2018-09-27T01:27:02.135Z,950.5
2018-09-27T01:28:02.033Z,950.3
2018-09-27T01:29:01.936Z,950.5
2018-09-27T01:30:01.856Z,950.3
2018-09-27T01:31:01.771Z,950.1
2018-09-27T01:32:01.935Z,950.5
2018-09-27T01:33:01.672Z,950.4
2018-09-27T01:34:01.403Z,950.4
2018-09-27T01:35:01.154Z,950.4
2018-09-27T01:36:00.898Z,950.5
2018-09-27T01:37:00.640Z,950.4
2018-09-27T01:38:00.379Z,950.3
2018-09-27T01:39:00.116Z,950.3
2018-09-27T01:39:59.854Z,950.3
2018-09-27T01:40:59.598Z,950.4
2018-09-27T01:41:59.936Z,950.3
2018-09-27T01:42:59.838Z,950.4
2018-09-27T01:43:59.744Z,950.3
2018-09-27T01:44:59.641Z,950.4
2018-09-27T01:45:59.572Z,950.3
2018-09-27T01:46:59.772Z,950.3
2018-09-27T01:47:59.718Z,950.3
2018-09-27T01:48:59.628Z,950.3
2018-09-27T01:49:59.525Z,950.3
2018-09-27T01:50:59.467Z,950.3
2018-09-27T01:51:59.843Z,950.1
2018-09-27T01:52:59.768Z,950.3
2018-09-27T01:53:59.697Z,950.3
2018-09-27T01:54:59.600Z,950.2
2018-09-27T01:55:59.586Z,950.3
2018-09-27T01:56:59.493Z,950.2
2018-09-27T01:57:59.398Z,950.2
2018-09-27T01:58:59.289Z,950.2
2018-09-27T01:59:59.187Z,950.2
2018-09-27T02:00:59.087Z,950.1
2018-09-27T02:01:59.446Z,950.3
2018-09-27T02:02:59.354Z,950.2
2018-09-27T02:03:59.261Z,950.2
2018-09-27T02:04:59.161Z,950.2
2018-09-27T02:05:59.069Z,950.1
2018-09-27T02:06:59.008Z,950.1
2018-09-27T02:07:58.913Z,950.1
2018-09-27T02:08:58.808Z,950.1
2018-09-27T02:09:58.710Z,950.2
2018-09-27T02:10:58.598Z,950.1
2018-09-27T02:11:58.771Z,949.9
2018-09-27T02:12:58.533Z,950.2
2018-09-27T02:13:58.267Z,950.1
2018-09-27T02:14:58.005Z,950.1
2018-09-27T02:15:57.737Z,950.2
2018-09-27T02:16:57.464Z,950.1
2018-09-27T02:17:57.208Z,950.1
2018-09-27T02:18:56.959Z,950.1
2018-09-27T02:19:56.695Z,950.1
2018-09-27T02:20:56.434Z,950.2
2018-09-27T02:21:56.787Z,950.2
2018-09-27T02:22:56.696Z,950.1
2018-09-27T02:23:56.613Z,950.1
2018-09-27T02:24:56.509Z,950.1
2018-09-27T02:25:56.408Z,950.2
2018-09-27T02:26:56.322Z,950.2
2018-09-27T02:27:56.264Z,950.2
2018-09-27T02:28:56.167Z,950.2
2018-09-27T02:29:56.066Z,950.2
2018-09-27T02:30:55.986Z,950.2
2018-09-27T02:31:56.347Z,950.2
2018-09-27T02:32:56.284Z,950.2
2018-09-27T02:33:56.217Z,950.2
2018-09-27T02:34:56.109Z,950.2
2018-09-27T02:35:56.028Z,950.2
2018-09-27T02:36:55.920Z,950.2
2018-09-27T02:37:55.835Z,950.2
2018-09-27T02:38:55.769Z,950.1
2018-09-27T02:39:55.694Z,950.1
2018-09-27T02:40:55.598Z,950.1
2018-09-27T02:41:55.942Z,950.1
2018-09-27T02:42:55.851Z,950.1
2018-09-27T02:43:55.766Z,950.1
2018-09-27T02:44:55.702Z,950
2018-09-27T02:45:55.619Z,950.2
2018-09-27T02:46:55.526Z,950
2018-09-27T02:47:55.438Z,950.1
2018-09-27T02:48:55.337Z,950
2018-09-27T02:49:55.241Z,950
2018-09-27T02:50:55.157Z,950
2018-09-27T02:51:55.499Z,950
2018-09-27T02:52:55.409Z,950
2018-09-27T02:53:55.316Z,950
2018-09-27T02:54:55.230Z,950
2018-09-27T02:55:55.138Z,949.9
2018-09-27T02:56:55.039Z,950
2018-09-27T02:57:54.940Z,949.9
2018-09-27T02:58:54.893Z,950
2018-09-27T02:59:54.816Z,950
2018-09-27T03:00:54.753Z,950
2018-09-27T03:01:54.918Z,949.9
2018-09-27T03:02:54.657Z,950
2018-09-27T03:03:54.387Z,950
2018-09-27T03:04:54.125Z,950.1
2018-09-27T03:05:53.903Z,950
2018-09-27T03:06:53.635Z,950.1
2018-09-27T03:07:53.384Z,950.1
2018-09-27T03:08:53.147Z,950.2
2018-09-27T03:09:52.878Z,950.1
2018-09-27T03:10:52.615Z,950.1
2018-09-27T03:11:53.000Z,950.1
2018-09-27T03:12:52.899Z,950.2
2018-09-27T03:13:53.323Z,950.1
2018-09-27T03:14:53.319Z,950.1
2018-09-27T03:15:53.254Z,950.1
2018-09-27T03:16:53.165Z,950.2
2018-09-27T03:17:53.069Z,950.2
2018-09-27T03:18:52.980Z,950.1
2018-09-27T03:19:52.894Z,950.2
2018-09-27T03:20:53.204Z,950.2
2018-09-27T03:21:53.600Z,950.1
2018-09-27T03:22:53.338Z,950.2
2018-09-27T03:23:53.070Z,950.2
2018-09-27T03:24:52.821Z,950.2
2018-09-27T03:25:52.552Z,950.2
2018-09-27T03:26:52.277Z,950.1
2018-09-27T03:27:52.029Z,950.2
2018-09-27T03:28:51.755Z,950.1
2018-09-27T03:29:51.487Z,950.1
2018-09-27T03:30:51.219Z,950.1
2018-09-27T03:31:51.567Z,950.1
2018-09-27T03:32:51.484Z,950.2
2018-09-27T03:33:51.392Z,950.1
2018-09-27T03:34:51.305Z,950.2
2018-09-27T03:35:51.217Z,950.1
2018-09-27T03:36:51.122Z,950.1
2018-09-27T03:37:51.073Z,950.1
2018-09-27T03:38:50.990Z,950.2
2018-09-27T03:39:51.435Z,950
2018-09-27T03:40:51.340Z,950.1
2018-09-27T03:41:51.678Z,950
2018-09-27T03:42:51.625Z,949.6
2018-09-27T03:43:51.539Z,950.1
2018-09-27T03:44:51.431Z,950.1
2018-09-27T03:45:51.381Z,950.1
2018-09-27T03:46:51.307Z,950.1
2018-09-27T03:47:51.196Z,950.2
2018-09-27T03:48:51.122Z,950
2018-09-27T03:49:51.019Z,950
2018-09-27T03:50:50.937Z,950.2
2018-09-27T03:51:51.105Z,950.2
2018-09-27T03:52:50.837Z,950.1
2018-09-27T03:53:50.601Z,950.2
2018-09-27T03:54:50.333Z,950.2
2018-09-27T03:55:50.082Z,950.1
2018-09-27T03:56:49.827Z,950.2
2018-09-27T03:57:49.576Z,950.2
2018-09-27T03:58:49.323Z,950.1
2018-09-27T03:59:49.075Z,950.1
2018-09-27T04:00:48.820Z,950.1
2018-09-27T04:01:49.166Z,950.1
2018-09-27T04:02:49.076Z,950.1
2018-09-27T04:03:48.988Z,950
2018-09-27T04:04:48.919Z,950
2018-09-27T04:05:48.814Z,950
2018-09-27T04:06:48.726Z,949.9
2018-09-27T04:07:48.639Z,950
2018-09-27T04:08:48.564Z,950
2018-09-27T04:09:48.484Z,949.9
2018-09-27T04:10:48.399Z,949.9
2018-09-27T04:11:48.748Z,950
2018-09-27T04:12:48.668Z,949.9
2018-09-27T04:13:48.577Z,949.9
2018-09-27T04:14:48.478Z,949.8
2018-09-27T04:15:48.789Z,949.8
2018-09-27T04:16:48.711Z,949.7
2018-09-27T04:17:48.603Z,949.7
2018-09-27T04:18:48.505Z,949.8
2018-09-27T04:19:48.426Z,949.7
2018-09-27T04:20:48.337Z,949.8
2018-09-27T04:21:49.043Z,949.8
2018-09-27T04:22:48.951Z,949.8
2018-09-27T04:23:48.845Z,949.8
2018-09-27T04:24:48.755Z,949.7
2018-09-27T04:25:48.666Z,949.7
2018-09-27T04:26:48.590Z,949.8
2018-09-27T04:27:49.011Z,949.8
2018-09-27T04:28:48.922Z,949.8
2018-09-27T04:29:48.820Z,949.8
2018-09-27T04:30:48.760Z,949.7
2018-09-27T04:31:48.910Z,949.7
2018-09-27T04:32:48.647Z,949.7
2018-09-27T04:33:48.707Z,949.7
2018-09-27T04:34:48.493Z,949.7
2018-09-27T04:35:48.250Z,949.7
2018-09-27T04:36:47.981Z,949.7
2018-09-27T04:37:47.714Z,949.7
2018-09-27T04:38:47.486Z,949.6
2018-09-27T04:39:47.486Z,949.7
2018-09-27T04:40:47.302Z,949.7
2018-09-27T04:41:47.640Z,949.7
2018-09-27T04:42:47.551Z,949.7
2018-09-27T04:43:47.458Z,949.7
2018-09-27T04:44:47.354Z,949.7
2018-09-27T04:45:47.673Z,949.6
2018-09-27T04:46:48.275Z,949.6
2018-09-27T04:47:48.261Z,949.7
2018-09-27T04:48:48.163Z,949.7
2018-09-27T04:49:48.068Z,949.7
2018-09-27T04:50:47.990Z,949.6
2018-09-27T04:51:48.942Z,949.7
2018-09-27T04:52:48.868Z,949.6
2018-09-27T04:53:48.795Z,949.6
2018-09-27T04:54:48.703Z,949.5
2018-09-27T04:55:48.643Z,949.7
2018-09-27T04:56:48.535Z,949.6
2018-09-27T04:57:48.430Z,949.4
2018-09-27T04:58:48.359Z,949.6
2018-09-27T04:59:48.400Z,949.6
2018-09-27T05:00:48.304Z,949.6
2018-09-27T05:01:48.680Z,949.6
2018-09-27T05:02:48.594Z,949.6
2018-09-27T05:03:49.019Z,949.6
2018-09-27T05:04:48.932Z,949.6
2018-09-27T05:05:48.828Z,949.6
2018-09-27T05:06:48.755Z,949.6
2018-09-27T05:07:48.658Z,949.5
2018-09-27T05:08:48.572Z,949.6
2018-09-27T05:09:48.483Z,949.6
2018-09-27T05:10:48.390Z,949.5
2018-09-27T05:11:48.634Z,949.6
2018-09-27T05:12:48.374Z,949.5
2018-09-27T05:13:48.122Z,949.5
2018-09-27T05:14:47.858Z,949.6
2018-09-27T05:15:47.731Z,949.6
2018-09-27T05:16:47.475Z,949.7
2018-09-27T05:17:47.238Z,949.7
2018-09-27T05:18:46.984Z,949.6
2018-09-27T05:19:46.723Z,949.6
2018-09-27T05:20:46.468Z,949.6
2018-09-27T05:21:46.829Z,949.6
2018-09-27T05:22:46.745Z,949.6
2018-09-27T05:23:46.714Z,949.7
2018-09-27T05:24:46.609Z,949.7
2018-09-27T05:25:46.519Z,949.7
2018-09-27T05:26:46.423Z,949.6
2018-09-27T05:27:47.119Z,949.6
2018-09-27T05:28:47.073Z,949.5
2018-09-27T05:29:46.981Z,949.5
2018-09-27T05:30:46.906Z,948.9
2018-09-27T05:31:47.286Z,949.5
2018-09-27T05:32:47.201Z,949.6
2018-09-27T05:33:47.148Z,949.5
2018-09-27T05:34:47.058Z,949.5
2018-09-27T05:35:46.963Z,949.6
2018-09-27T05:36:46.875Z,949.5
2018-09-27T05:37:46.814Z,949.5
2018-09-27T05:38:46.729Z,949.5
2018-09-27T05:39:46.647Z,949.3
2018-09-27T05:40:46.564Z,949.4
2018-09-27T05:41:46.917Z,949.5
2018-09-27T05:42:46.835Z,949.5
2018-09-27T05:43:46.748Z,949.5
2018-09-27T05:44:46.649Z,949.4
2018-09-27T05:45:46.569Z,949.4
2018-09-27T05:46:46.472Z,949.5
2018-09-27T05:47:46.379Z,949.3
2018-09-27T05:48:46.320Z,949.3
2018-09-27T05:49:46.559Z,949.3
2018-09-27T05:50:46.470Z,949.4
2018-09-27T05:51:46.822Z,949.5
2018-09-27T05:52:46.745Z,949.3
2018-09-27T05:53:46.658Z,949.4
2018-09-27T05:54:46.621Z,949.4
2018-09-27T05:55:46.890Z,949.5
2018-09-27T05:56:46.817Z,949.5
2018-09-27T05:57:46.773Z,949.5
2018-09-27T05:58:46.687Z,949.3
2018-09-27T05:59:46.585Z,949.4
2018-09-27T06:00:46.496Z,949.4
2018-09-27T06:01:46.662Z,949.3
2018-09-27T06:02:46.405Z,949.4
2018-09-27T06:03:46.143Z,949.4
2018-09-27T06:04:45.889Z,949.3
2018-09-27T06:05:45.644Z,949.4
2018-09-27T06:06:45.383Z,949.5
2018-09-27T06:07:45.128Z,949.4
2018-09-27T06:08:44.877Z,949.5
2018-09-27T06:09:44.972Z,949.5
2018-09-27T06:10:44.722Z,949.5
2018-09-27T06:11:45.284Z,949.5
2018-09-27T06:12:45.193Z,949.5
2018-09-27T06:13:45.094Z,949.5
2018-09-27T06:14:45.017Z,949.5
2018-09-27T06:15:45.160Z,949.5
2018-09-27T06:16:45.095Z,949.5
2018-09-27T06:17:45.025Z,949.5
2018-09-27T06:18:44.924Z,949.5
2018-09-27T06:19:45.258Z,949.6
2018-09-27T06:20:45.252Z,949.6
2018-09-27T06:21:45.673Z,949.5
2018-09-27T06:22:45.596Z,949.5
2018-09-27T06:23:45.488Z,949.5
2018-09-27T06:24:45.402Z,949.5
2018-09-27T06:25:45.300Z,949.5
2018-09-27T06:26:45.244Z,949.5
2018-09-27T06:27:45.159Z,949.5
2018-09-27T06:28:45.072Z,949.5
2018-09-27T06:29:44.987Z,949.5
2018-09-27T06:30:44.882Z,949.5
2018-09-27T06:31:45.242Z,949.5
2018-09-27T06:32:45.172Z,949.5
2018-09-27T06:33:45.412Z,949.5
2018-09-27T06:34:45.326Z,949.5
2018-09-27T06:35:45.256Z,949.5
2018-09-27T06:36:45.168Z,949.5
2018-09-27T06:37:45.103Z,949.5
2018-09-27T06:38:45.642Z,949.6
2018-09-27T06:39:45.558Z,949.5
2018-09-27T06:40:45.462Z,949.5
2018-09-27T06:41:46.038Z,949.5
2018-09-27T06:42:46.157Z,949.5
2018-09-27T06:43:46.098Z,949.6
2018-09-27T06:44:46.309Z,949.6
2018-09-27T06:45:46.258Z,949.7
2018-09-27T06:46:46.191Z,949.4
2018-09-27T06:47:46.099Z,949.4
2018-09-27T06:48:46.581Z,949.7
2018-09-27T06:49:46.517Z,949.3
2018-09-27T06:50:46.605Z,949.5
2018-09-27T06:51:46.937Z,949.5
2018-09-27T06:52:46.896Z,949.6
2018-09-27T06:53:46.871Z,949.5
2018-09-27T06:54:47.304Z,949.2
2018-09-27T06:55:48.166Z,949.4
2018-09-27T06:56:48.204Z,949.5
2018-09-27T06:57:48.121Z,949.5
2018-09-27T06:58:48.092Z,949.5
2018-09-27T06:59:47.992Z,949.6
2018-09-27T07:00:48.163Z,949.6
2018-09-27T07:01:48.637Z,949.5
2018-09-27T07:02:48.544Z,949.5
2018-09-27T07:03:48.455Z,949.5
2018-09-27T07:04:48.618Z,949.5
2018-09-27T07:05:48.531Z,949.5
2018-09-27T07:06:48.440Z,949.5
2018-09-27T07:07:48.358Z,949.5
2018-09-27T07:08:48.271Z,949.4
2018-09-27T07:09:48.221Z,949.6
2018-09-27T07:10:48.125Z,949.5
2018-09-27T07:11:48.887Z,949.5
2018-09-27T07:12:49.525Z,949.4
2018-09-27T07:13:49.447Z,949.5
2018-09-27T07:14:49.383Z,949.5
2018-09-27T07:15:49.300Z,949.5
2018-09-27T07:16:49.192Z,949.5
2018-09-27T07:17:49.089Z,949.5
2018-09-27T07:18:49.457Z,949.5
2018-09-27T07:19:49.379Z,949.5
2018-09-27T07:20:49.956Z,948.9
2018-09-27T07:21:50.770Z,949.5
2018-09-27T07:22:50.676Z,949.4
2018-09-27T07:23:50.600Z,949.4
2018-09-27T07:24:50.515Z,949.5
2018-09-27T07:25:50.441Z,949.3
2018-09-27T07:26:51.329Z,949.4
2018-09-27T07:27:51.313Z,949.4
2018-09-27T07:28:51.215Z,949.4
2018-09-27T07:29:51.394Z,949.4
2018-09-27T07:30:51.328Z,949.4
2018-09-27T07:31:51.706Z,949.3
2018-09-27T07:32:51.620Z,949
2018-09-27T07:33:51.517Z,949.4
2018-09-27T07:34:51.427Z,949.4
2018-09-27T07:35:51.332Z,949.5
2018-09-27T07:36:51.258Z,949.5
2018-09-27T07:37:51.172Z,949.5
2018-09-27T07:38:51.085Z,949.5
2018-09-27T07:39:50.993Z,949.6
2018-09-27T07:40:50.883Z,949.5
2018-09-27T07:41:51.495Z,949.5
2018-09-27T07:42:52.335Z,949.5
2018-09-27T07:43:52.272Z,949.5
2018-09-27T07:44:52.178Z,949.5
2018-09-27T07:45:52.097Z,949.5
2018-09-27T07:46:52.000Z,949.5
2018-09-27T07:47:51.937Z,949.5
2018-09-27T07:48:51.853Z,949.5
2018-09-27T07:49:51.753Z,949.5
2018-09-27T07:50:51.671Z,949.5
2018-09-27T07:51:52.018Z,949.5
2018-09-27T07:52:51.926Z,949.5
2018-09-27T07:53:51.862Z,949.4
2018-09-27T07:54:52.370Z,949.5
2018-09-27T07:55:52.330Z,949.4
2018-09-27T07:56:52.239Z,949.5
2018-09-27T07:57:52.143Z,949.5
2018-09-27T07:58:52.055Z,949.5
2018-09-27T07:59:51.951Z,949.5
2018-09-27T08:00:52.080Z,949.5
2018-09-27T08:01:52.469Z,949.5
2018-09-27T08:02:53.822Z,949.4
2018-09-27T08:03:53.861Z,949.5
2018-09-27T08:04:53.769Z,949.5
2018-09-27T08:05:53.681Z,949.3
2018-09-27T08:06:53.580Z,949.4
2018-09-27T08:07:53.490Z,949.3
2018-09-27T08:08:53.428Z,949.4
2018-09-27T08:09:53.341Z,949.4
2018-09-27T08:10:53.545Z,949.5
2018-09-27T08:11:55.020Z,949.3
2018-09-27T08:12:54.824Z,949.5
2018-09-27T08:13:54.570Z,949.5
2018-09-27T08:14:54.317Z,949.5
2018-09-27T08:15:54.047Z,949.3
2018-09-27T08:16:54.079Z,949.4
2018-09-27T08:17:53.839Z,949.5
2018-09-27T08:18:53.601Z,949.4
2018-09-27T08:19:53.325Z,949.4
2018-09-27T08:20:53.444Z,949.5
2018-09-27T08:21:54.766Z,949.3
2018-09-27T08:22:54.668Z,949.4
2018-09-27T08:23:54.708Z,949.3
2018-09-27T08:24:54.629Z,949.3
2018-09-27T08:25:54.527Z,949.3
2018-09-27T08:26:54.434Z,949.3
2018-09-27T08:27:54.341Z,949.3
2018-09-27T08:28:54.292Z,949.3
2018-09-27T08:29:54.208Z,949.3
2018-09-27T08:30:55.233Z,949.4
2018-09-27T08:31:55.816Z,949.3
2018-09-27T08:32:55.721Z,949
2018-09-27T08:33:55.648Z,949.4
2018-09-27T08:34:55.553Z,949.3
2018-09-27T08:35:55.477Z,949.4
2018-09-27T08:36:55.442Z,949.3
2018-09-27T08:37:55.419Z,949.3
2018-09-27T08:38:55.337Z,949.3
2018-09-27T08:39:55.277Z,949.4
2018-09-27T08:40:55.189Z,949.4
2018-09-27T08:41:55.548Z,949.3
2018-09-27T08:42:55.480Z,949.2
2018-09-27T08:43:55.395Z,949.3
2018-09-27T08:44:56.804Z,949.3
2018-09-27T08:45:57.633Z,949.4
2018-09-27T08:46:57.610Z,949.3
2018-09-27T08:47:57.514Z,949.3
2018-09-27T08:48:57.491Z,949.3
2018-09-27T08:49:57.391Z,949.2
2018-09-27T08:50:57.308Z,949.3
2018-09-27T08:51:57.954Z,949.3
2018-09-27T08:52:57.860Z,949.2
2018-09-27T08:53:57.766Z,949.3
2018-09-27T08:54:57.665Z,949.3
2018-09-27T08:55:58.885Z,949.3
2018-09-27T08:56:58.806Z,949.3
2018-09-27T08:57:58.713Z,949.2
2018-09-27T08:58:58.628Z,949.1
2018-09-27T08:59:58.539Z,949.2
2018-09-27T09:00:58.506Z,949.2
2018-09-27T09:02:01.844Z,949.1
2018-09-27T09:03:01.581Z,949.1
2018-09-27T09:04:01.666Z,949.1
2018-09-27T09:05:01.515Z,949.1
2018-09-27T09:06:01.283Z,948.9
2018-09-27T09:07:01.027Z,949.1
2018-09-27T09:08:00.769Z,949
2018-09-27T09:09:00.506Z,949.1
2018-09-27T09:10:00.243Z,949.1
2018-09-27T09:10:59.976Z,949
2018-09-27T09:12:00.647Z,949
2018-09-27T09:13:03.558Z,949
2018-09-27T09:14:03.467Z,949
2018-09-27T09:15:03.396Z,949
2018-09-27T09:16:03.316Z,949
2018-09-27T09:17:03.255Z,949
2018-09-27T09:18:03.173Z,949
2018-09-27T09:19:03.074Z,949.1
2018-09-27T09:20:03.001Z,949
2018-09-27T09:21:02.918Z,949.1
2018-09-27T09:22:03.616Z,949
2018-09-27T09:23:03.555Z,949.1
2018-09-27T09:24:03.300Z,949
2018-09-27T09:25:03.044Z,949
2018-09-27T09:26:03.080Z,949
2018-09-27T09:27:02.867Z,949.1
2018-09-27T09:28:02.619Z,949.1
2018-09-27T09:29:02.393Z,949
2018-09-27T09:30:02.621Z,949
2018-09-27T09:31:02.378Z,949
2018-09-27T09:32:02.795Z,949
2018-09-27T09:33:02.537Z,949
2018-09-27T09:34:02.293Z,948.9
2018-09-27T09:35:02.039Z,948.9
2018-09-27T09:36:02.112Z,949
2018-09-27T09:37:01.862Z,949
2018-09-27T09:38:01.605Z,948.9
2018-09-27T09:39:01.375Z,948.9
2018-09-27T09:40:01.119Z,949
2018-09-27T09:41:00.867Z,948.9
2018-09-27T09:42:01.224Z,948.9
2018-09-27T09:43:01.347Z,949
2018-09-27T09:44:01.266Z,948.9
2018-09-27T09:45:01.204Z,948.9
2018-09-27T09:46:01.112Z,948.9
2018-09-27T09:47:01.011Z,948.8
2018-09-27T09:48:00.918Z,948.9
2018-09-27T09:49:00.836Z,948.7
2018-09-27T09:50:01.375Z,948.7
2018-09-27T09:51:01.380Z,948.7
2018-09-27T09:52:01.742Z,948.8
2018-09-27T09:53:01.653Z,948.7
2018-09-27T09:54:01.576Z,948.8
2018-09-27T09:55:01.484Z,948.8
2018-09-27T09:56:01.421Z,948.8
2018-09-27T09:57:01.344Z,948.8
2018-09-27T09:58:01.282Z,948.7
2018-09-27T09:59:01.203Z,948.7
2018-09-27T10:00:01.115Z,948.7
2018-09-27T10:01:01.052Z,948.7
2018-09-27T10:02:01.432Z,948.8
2018-09-27T10:03:01.353Z,948.7
2018-09-27T10:04:01.278Z,948.6
2018-09-27T10:05:01.213Z,948.7
2018-09-27T10:06:01.140Z,948.7
2018-09-27T10:07:01.030Z,948.7
2018-09-27T10:08:00.933Z,948.7
2018-09-27T10:09:01.637Z,948.6
2018-09-27T10:10:01.583Z,948.6
2018-09-27T10:11:01.529Z,948.6
2018-09-27T10:12:01.909Z,948.6
2018-09-27T10:13:01.829Z,948.5
2018-09-27T10:14:01.748Z,948.5
2018-09-27T10:15:01.653Z,948.6
2018-09-27T10:16:01.596Z,948.5
2018-09-27T10:17:01.564Z,948.5
2018-09-27T10:18:01.473Z,948.5
2018-09-27T10:19:01.434Z,948.5
2018-09-27T10:20:01.380Z,948.4
2018-09-27T10:21:01.327Z,948.6
2018-09-27T10:22:02.421Z,948.5
2018-09-27T10:23:02.362Z,948.5
2018-09-27T10:24:02.132Z,948.5
2018-09-27T10:25:01.877Z,948.4
2018-09-27T10:26:01.613Z,948.4
2018-09-27T10:27:01.351Z,948.5
2018-09-27T10:28:01.113Z,948.4
2018-09-27T10:29:00.851Z,948.4
2018-09-27T10:30:00.608Z,948.5
2018-09-27T10:31:00.371Z,948.5
2018-09-27T10:32:00.553Z,948.5
2018-09-27T10:33:00.318Z,948.4
2018-09-27T10:34:00.126Z,948.4
2018-09-27T10:34:59.877Z,948.4
2018-09-27T10:35:59.621Z,948.3
2018-09-27T10:36:59.367Z,948.4
2018-09-27T10:37:59.114Z,948.4
2018-09-27T10:38:58.863Z,948.5
2018-09-27T10:39:58.615Z,948.5
2018-09-27T10:40:58.361Z,948.4
2018-09-27T10:41:58.705Z,948.4
2018-09-27T10:42:58.614Z,948.4
2018-09-27T10:43:58.525Z,948.4
2018-09-27T10:44:58.846Z,948.4
2018-09-27T10:45:58.774Z,948.4
2018-09-27T10:46:58.687Z,948.3
2018-09-27T10:47:58.603Z,948.4
2018-09-27T10:48:58.540Z,948.3
2018-09-27T10:49:58.463Z,948.4
2018-09-27T10:50:58.367Z,948.3
2018-09-27T10:51:59.350Z,948.3
2018-09-27T10:52:59.254Z,948.3
2018-09-27T10:53:59.178Z,948.3
2018-09-27T10:54:59.097Z,948.3
2018-09-27T10:55:59.232Z,948.2
2018-09-27T10:56:59.345Z,948.3
2018-09-27T10:57:59.276Z,948.2
2018-09-27T10:58:59.159Z,948.3
2018-09-27T10:59:59.097Z,948.2
2018-09-27T11:00:59.012Z,948.3
2018-09-27T11:01:59.369Z,948.3
2018-09-27T11:02:59.273Z,948.2
2018-09-27T11:03:59.571Z,947.9
2018-09-27T11:04:59.742Z,948.1
2018-09-27T11:05:59.643Z,948.1
2018-09-27T11:06:59.557Z,948.1
2018-09-27T11:07:59.458Z,948.1
2018-09-27T11:08:59.372Z,948.2
2018-09-27T11:09:59.501Z,948.1
2018-09-27T11:10:59.906Z,948
2018-09-27T11:12:00.877Z,948.1
2018-09-27T11:13:00.801Z,948
2018-09-27T11:14:00.759Z,948.1
2018-09-27T11:15:00.659Z,948.1
2018-09-27T11:16:00.602Z,948
2018-09-27T11:17:00.524Z,948
2018-09-27T11:18:00.429Z,947.9
2018-09-27T11:19:00.345Z,948
2018-09-27T11:20:00.266Z,947.9
2018-09-27T11:21:00.189Z,948
2018-09-27T11:22:01.126Z,948
2018-09-27T11:23:01.102Z,947.8
2018-09-27T11:24:01.010Z,947.9
2018-09-27T11:25:00.919Z,948
2018-09-27T11:26:00.860Z,947.9
2018-09-27T11:27:00.772Z,947.9
2018-09-27T11:28:00.684Z,947.9
2018-09-27T11:29:01.200Z,947.9
2018-09-27T11:30:01.120Z,947.8
2018-09-27T11:31:01.078Z,947.8
2018-09-27T11:32:01.442Z,947.7
2018-09-27T11:33:01.807Z,947.8
2018-09-27T11:34:01.774Z,947.7
2018-09-27T11:35:01.686Z,947.7
2018-09-27T11:36:01.856Z,947.7
2018-09-27T11:37:01.785Z,947.7
2018-09-27T11:38:01.712Z,947.7
2018-09-27T11:39:01.629Z,947.7
2018-09-27T11:40:01.544Z,947.7
2018-09-27T11:41:01.456Z,947.6
2018-09-27T11:42:01.849Z,947.6
2018-09-27T11:43:01.765Z,947.6
2018-09-27T11:44:02.298Z,947.7
2018-09-27T11:45:04.881Z,947.6
2018-09-27T11:46:04.803Z,947.6
2018-09-27T11:47:04.722Z,947.5
2018-09-27T11:48:04.642Z,947.6
2018-09-27T11:49:05.333Z,947.5
2018-09-27T11:50:06.530Z,947.5
2018-09-27T11:51:06.513Z,947.5
2018-09-27T11:52:06.871Z,947.5
2018-09-27T11:53:06.778Z,947.4
2018-09-27T11:54:06.687Z,947.4
2018-09-27T11:55:07.051Z,947.3
2018-09-27T11:56:07.673Z,947.4
2018-09-27T11:57:07.665Z,947.2
2018-09-27T11:58:07.603Z,947.3
2018-09-27T11:59:08.063Z,947.3
2018-09-27T12:00:08.029Z,947.2
2018-09-27T12:01:07.939Z,947.3
2018-09-27T12:02:08.891Z,947.2
2018-09-27T12:03:08.794Z,947.2
2018-09-27T12:04:08.540Z,947.2
2018-09-27T12:05:08.335Z,947.1
2018-09-27T12:06:10.913Z,947.2
2018-09-27T12:07:10.683Z,947.2
2018-09-27T12:08:10.418Z,947.2
2018-09-27T12:09:10.160Z,947.2
2018-09-27T12:10:09.898Z,947.1
2018-09-27T12:11:09.639Z,947.1
2018-09-27T12:12:10.115Z,947.2
2018-09-27T12:13:10.065Z,947.1
2018-09-27T12:14:09.964Z,947
2018-09-27T12:15:09.872Z,947
2018-09-27T12:16:09.787Z,947
2018-09-27T12:17:09.701Z,947
2018-09-27T12:18:09.656Z,947
2018-09-27T12:19:09.571Z,946.7
2018-09-27T12:20:10.256Z,946.9
2018-09-27T12:21:10.196Z,946.7
2018-09-27T12:22:10.552Z,947
2018-09-27T12:23:11.173Z,947
2018-09-27T12:24:11.126Z,946.8
2018-09-27T12:25:11.041Z,946.8
2018-09-27T12:26:10.959Z,947
2018-09-27T12:27:10.873Z,946.9
2018-09-27T12:28:10.790Z,946.8
2018-09-27T12:29:10.724Z,946.9
2018-09-27T12:30:10.674Z,946.8
2018-09-27T12:31:11.197Z,946.8
2018-09-27T12:32:11.544Z,946.8
2018-09-27T12:33:11.459Z,946.8
2018-09-27T12:34:12.364Z,946.8
2018-09-27T12:35:12.332Z,946.7
2018-09-27T12:36:12.244Z,946.7
2018-09-27T12:37:12.152Z,946.6
2018-09-27T12:38:12.120Z,946.7
2018-09-27T12:39:12.086Z,946.7
2018-09-27T12:40:11.994Z,946.6
2018-09-27T12:41:11.899Z,946.6
2018-09-27T12:42:14.933Z,946.7
2018-09-27T12:43:15.040Z,946.6
2018-09-27T12:44:14.954Z,946.6
2018-09-27T12:45:15.966Z,946.5
2018-09-27T12:46:16.410Z,946.6
2018-09-27T12:47:16.329Z,946.6
2018-09-27T12:48:16.634Z,946.6
2018-09-27T12:49:16.571Z,946.6
2018-09-27T12:50:16.468Z,946.5
2018-09-27T12:51:18.230Z,946.5
2018-09-27T12:52:22.099Z,946.5
2018-09-27T12:53:22.127Z,946.5
2018-09-27T12:54:22.051Z,946.5
2018-09-27T12:55:27.947Z,946.4
2018-09-27T12:56:27.904Z,946.5
2018-09-27T12:57:27.821Z,946.4